메인 페이지
METAR-TAF:

METAR-TAF

공항 :

지브롤터 공항

지브롤터, 지브롤터

위도: 36-09N, 경도: 005-21W, 고도: 5m

현재 날씨관측

예보는 58분 전, 04:50시(UTC)에 발표되었습니다.
9kt
온도 22°C
습도 94%
기압 1015 hPa
시정: 2500m
고도 500ft 상공 구름 조금
고도 1500ft 상공 구름 많음
시계 내 안개

METAR: LXGB 230450Z 10009KT 8000 2500E VCFG FEW005 BKN015 22/21 Q1015

시각: 07:48 (05:48 UTC)

예보

예보는 52분 전, 04:56시(UTC)에 발표되었습니다.
예보 대상 시간: 23일 06시부터 23일 15시까지 (UTC)
8kt
시정: 8000m
고도 400ft 상공 구름 조금
고도 1500ft 상공 구름 많음
연무
일시적
23일 06시부터 23일 11시까지 (UTC)
시정: 2500m
고도 400ft 상공 구름 보통
시계 내 안개
확률 30% :
일시적
23일 06시부터 23일 09시까지 (UTC)
시정: 0700m
고도 100ft 미만 상공 구름 보통
안개
일시적
23일 11시부터 23일 15시까지 (UTC)
고도 1500ft 상공 구름 조금

TAF: LXGB 230456Z 2306/2315 10008KT 8000 HZ FEW004 BKN015 TEMPO 2306/2311 2500 VCFG SCT004 PROB30 TEMPO 2306/2309 0700 FG SCT000 TEMPO 2311/2315 FEW015

4,000개 이상의 공항 관측 자료 및 예보 (METAR 및 TAF 보고).

지도상에서 검색 가능한 기상관측소가 노란 점과 빨간 점으로 표시되어 있습니다.

기상관측소 명을 보려면 표시 위로 마우스를 이동하세요.

날씨 관측과 예보를 보려면 클릭하세요.

지도 변경 : 확대하려면 엑스 표시가 있는 녹색 버튼, 축소하려면 빼기 표시가 있는 녹색 버튼, 다음 페이지의 지도를 보려면 녹색 화살표를 클릭하세요.


METAR-TAF: